createdAt,value
2023-03-22T00:00:33.869Z,22.83
2023-03-22T00:03:39.202Z,17.33
2023-03-22T00:06:42.035Z,18.10
2023-03-22T00:09:46.569Z,18.33
2023-03-22T00:12:49.252Z,19.50
2023-03-22T00:15:52.257Z,16.08
2023-03-22T00:18:55.204Z,17.05
2023-03-22T00:21:58.063Z,16.53
2023-03-22T00:25:02.235Z,19.37
2023-03-22T00:28:05.394Z,15.63
2023-03-22T00:31:08.352Z,16.27
2023-03-22T00:34:11.663Z,15.55
2023-03-22T00:37:16.374Z,15.20
2023-03-22T00:40:20.859Z,14.87
2023-03-22T00:43:23.571Z,15.30
2023-03-22T00:46:27.283Z,18.58
2023-03-22T00:49:31.206Z,14.43
2023-03-22T00:52:34.566Z,15.17
2023-03-22T00:55:38.674Z,17.13
2023-03-22T00:58:41.663Z,13.23
2023-03-22T01:01:44.823Z,14.25
2023-03-22T01:04:48.286Z,15.30
2023-03-22T01:07:51.715Z,13.70
2023-03-22T01:10:56.017Z,16.20
2023-03-22T01:13:59.693Z,19.35
2023-03-22T01:17:02.752Z,14.95
2023-03-22T01:20:06.951Z,16.10
2023-03-22T01:23:09.822Z,15.47
2023-03-22T01:26:13.933Z,16.00
2023-03-22T01:29:17.211Z,15.82
2023-03-22T01:32:19.880Z,14.57
2023-03-22T01:35:22.759Z,13.52
2023-03-22T01:38:25.824Z,16.87
2023-03-22T01:41:30.079Z,16.47
2023-03-22T01:44:33.422Z,15.57
2023-03-22T01:47:36.655Z,13.23
2023-03-22T01:50:42.566Z,17.70
2023-03-22T01:53:49.966Z,18.17
2023-03-22T01:56:54.264Z,15.93
2023-03-22T01:59:57.490Z,17.23
2023-03-22T02:03:00.813Z,16.00
2023-03-22T02:06:04.126Z,18.23
2023-03-22T02:09:08.115Z,17.70
2023-03-22T02:12:22.025Z,17.47
2023-03-22T02:15:31.025Z,17.33
2023-03-22T02:18:46.957Z,19.83
2023-03-22T02:22:22.904Z,18.45
2023-03-22T02:26:01.011Z,15.97
2023-03-22T02:29:12.733Z,18.73
2023-03-22T02:32:47.377Z,14.55
2023-03-22T02:36:01.664Z,17.98
2023-03-22T02:39:16.682Z,16.30
2023-03-22T02:42:37.274Z,17.37
2023-03-22T02:45:48.419Z,16.50
2023-03-22T02:48:58.402Z,18.15
2023-03-22T02:52:04.248Z,17.83
2023-03-22T02:55:13.075Z,17.17
2023-03-22T02:58:19.145Z,14.63
2023-03-22T03:01:27.886Z,17.63
2023-03-22T03:04:35.563Z,15.23
2023-03-22T03:07:39.775Z,16.58
2023-03-22T03:10:45.069Z,16.00
2023-03-22T03:13:49.192Z,17.67
2023-03-22T03:17:03.621Z,18.47
2023-03-22T03:20:24.651Z,16.00
2023-03-22T03:23:34.806Z,16.35
2023-03-22T03:26:47.232Z,17.15
2023-03-22T03:29:53.676Z,19.60
2023-03-22T03:33:01.055Z,18.67
2023-03-22T03:36:06.322Z,18.67
2023-03-22T03:39:13.720Z,17.02
2023-03-22T03:42:19.411Z,18.88
2023-03-22T03:45:23.208Z,21.13
2023-03-22T03:48:29.591Z,18.07
2023-03-22T03:51:34.530Z,18.10
2023-03-22T03:54:37.719Z,18.52
2023-03-22T03:57:41.912Z,16.58
2023-03-22T04:00:46.108Z,19.90
2023-03-22T04:03:50.673Z,16.20
2023-03-22T04:06:56.882Z,18.13
2023-03-22T04:09:59.657Z,15.82
2023-03-22T04:13:03.744Z,17.48
2023-03-22T04:16:07.453Z,16.97
2023-03-22T04:19:10.320Z,16.23
2023-03-22T04:22:14.913Z,16.25
2023-03-22T04:25:19.016Z,19.35
2023-03-22T04:28:23.905Z,16.95
2023-03-22T04:31:27.046Z,16.80
2023-03-22T04:34:29.890Z,20.87
2023-03-22T04:37:33.820Z,15.55
2023-03-22T04:40:38.791Z,15.57
2023-03-22T04:43:47.146Z,17.58
2023-03-22T04:46:49.979Z,18.27
2023-03-22T04:49:53.022Z,18.65
2023-03-22T04:52:55.774Z,18.48
2023-03-22T04:55:58.893Z,18.63
2023-03-22T04:59:03.514Z,19.55
2023-03-22T05:02:06.350Z,18.50
2023-03-22T05:05:09.309Z,19.30
2023-03-22T05:08:14.391Z,17.95
2023-03-22T05:11:19.414Z,16.98
2023-03-22T05:14:23.652Z,14.88
2023-03-22T05:17:26.543Z,17.97
2023-03-22T05:20:29.382Z,17.77
2023-03-22T05:23:32.202Z,17.27
2023-03-22T05:26:38.001Z,16.63
2023-03-22T05:29:45.205Z,17.00
2023-03-22T05:32:49.533Z,18.83
2023-03-22T05:35:52.579Z,18.10
2023-03-22T05:38:55.512Z,20.33
2023-03-22T05:41:58.233Z,18.40
2023-03-22T05:45:02.444Z,17.45
2023-03-22T05:48:05.410Z,18.23
2023-03-22T05:51:09.352Z,16.00
2023-03-22T05:54:12.158Z,18.63
2023-03-22T05:57:14.902Z,18.70
2023-03-22T06:00:20.303Z,17.55
2023-03-22T06:03:29.816Z,18.27
2023-03-22T06:06:48.186Z,16.95
2023-03-22T06:09:50.940Z,20.02
2023-03-22T06:12:54.234Z,18.30
2023-03-22T06:16:01.479Z,17.42
2023-03-22T06:19:04.372Z,18.58
2023-03-22T06:22:07.343Z,18.23
2023-03-22T06:25:11.848Z,19.03
2023-03-22T06:28:14.740Z,16.63
2023-03-22T06:31:18.891Z,18.05
2023-03-22T06:34:21.624Z,16.67
2023-03-22T06:37:25.014Z,19.00
2023-03-22T06:40:28.034Z,17.27
2023-03-22T06:43:30.829Z,17.10
2023-03-22T06:46:34.923Z,17.42
2023-03-22T06:49:37.682Z,17.48
2023-03-22T06:52:40.558Z,16.05
2023-03-22T06:55:43.305Z,18.70
2023-03-22T06:58:46.193Z,16.40
2023-03-22T07:01:50.391Z,17.15
2023-03-22T07:04:53.215Z,19.97
2023-03-22T07:07:55.979Z,21.05
2023-03-22T07:10:58.886Z,17.35
2023-03-22T07:14:01.609Z,18.85
2023-03-22T07:17:05.865Z,19.13
2023-03-22T07:20:09.912Z,17.53
2023-03-22T07:23:12.825Z,17.95
2023-03-22T07:26:15.786Z,20.77
2023-03-22T07:29:18.475Z,16.88
2023-03-22T07:32:22.609Z,20.00
2023-03-22T07:35:26.959Z,19.10
2023-03-22T07:38:29.806Z,18.45
2023-03-22T07:41:32.768Z,19.88
2023-03-22T07:44:36.966Z,18.65
2023-03-22T07:47:41.682Z,17.52
2023-03-22T07:50:44.510Z,15.80
2023-03-22T07:53:47.229Z,16.88
2023-03-22T07:56:50.282Z,20.55
2023-03-22T07:59:52.980Z,19.58
2023-03-22T08:02:57.198Z,15.82
2023-03-22T08:06:03.761Z,18.50
2023-03-22T08:09:08.343Z,14.98
2023-03-22T08:12:11.193Z,16.55
2023-03-22T08:15:14.116Z,15.88
2023-03-22T08:18:18.360Z,16.17
2023-03-22T08:21:21.297Z,13.43
2023-03-22T08:24:24.147Z,15.50
2023-03-22T08:27:27.327Z,17.25
2023-03-22T08:30:30.185Z,13.55
2023-03-22T08:33:34.608Z,15.38
2023-03-22T08:36:38.533Z,14.33
2023-03-22T08:39:41.715Z,16.88
2023-03-22T08:42:46.413Z,14.85
2023-03-22T08:45:49.270Z,13.18
2023-03-22T08:48:53.853Z,14.88
2023-03-22T08:51:57.601Z,13.70
2023-03-22T08:55:01.104Z,17.00
2023-03-22T08:58:04.686Z,14.73
2023-03-22T09:01:07.817Z,15.23
2023-03-22T09:04:12.023Z,12.60
2023-03-22T09:07:15.093Z,15.38
2023-03-22T09:10:17.983Z,13.85
2023-03-22T09:13:21.333Z,14.53
2023-03-22T09:16:24.353Z,15.23
2023-03-22T09:19:28.990Z,12.73
2023-03-22T09:22:32.110Z,14.75
2023-03-22T09:25:34.901Z,11.75
2023-03-22T09:28:38.215Z,14.77
2023-03-22T09:31:41.113Z,15.20
2023-03-22T09:34:45.695Z,12.43
2023-03-22T09:37:49.642Z,14.88
2023-03-22T09:41:00.447Z,13.15
2023-03-22T09:44:06.522Z,12.53
2023-03-22T09:47:16.506Z,12.80
2023-03-22T09:50:24.312Z,13.52
2023-03-22T09:53:29.237Z,13.10
2023-03-22T09:56:33.144Z,11.65
2023-03-22T09:59:43.674Z,11.80
2023-03-22T10:02:58.999Z,10.83
2023-03-22T10:06:06.136Z,12.15
2023-03-22T10:09:14.984Z,11.02
2023-03-22T10:12:24.654Z,12.27
2023-03-22T10:15:33.195Z,11.83
2023-03-22T10:18:39.333Z,12.20
2023-03-22T10:25:07.115Z,12.50
2023-03-22T10:28:19.584Z,12.23
2023-03-22T10:31:22.705Z,11.20
2023-03-22T10:34:31.130Z,11.87
2023-03-22T10:37:37.562Z,11.13
2023-03-22T10:40:41.535Z,11.75
2023-03-22T10:43:46.845Z,9.82
2023-03-22T10:46:51.973Z,12.77
2023-03-22T10:49:58.290Z,11.47
2023-03-22T10:53:07.199Z,10.98
2023-03-22T10:56:14.053Z,11.45
2023-03-22T10:59:48.339Z,9.45
2023-03-22T11:02:54.195Z,8.80
2023-03-22T11:06:02.840Z,8.60
2023-03-22T11:09:13.627Z,7.72
2023-03-22T11:12:17.102Z,8.55
2023-03-22T11:15:29.940Z,8.40
2023-03-22T11:18:34.764Z,8.47
2023-03-22T11:21:37.469Z,8.40
2023-03-22T11:24:41.774Z,7.93
2023-03-22T11:27:52.128Z,8.38
2023-03-22T11:31:07.261Z,7.78
2023-03-22T11:34:18.398Z,7.67
2023-03-22T11:37:23.058Z,7.43
2023-03-22T11:40:29.302Z,6.88
2023-03-22T11:43:38.499Z,6.20
2023-03-22T11:46:50.341Z,7.00
2023-03-22T11:49:55.344Z,5.40
2023-03-22T11:52:58.501Z,6.63
2023-03-22T11:56:07.575Z,7.07
2023-03-22T11:59:15.266Z,6.88
2023-03-22T12:02:24.554Z,8.00
2023-03-22T12:05:30.057Z,7.90
2023-03-22T12:08:42.654Z,6.33
2023-03-22T12:11:50.675Z,6.13
2023-03-22T12:14:58.438Z,7.45
2023-03-22T12:18:08.165Z,7.75
2023-03-22T12:21:11.917Z,5.67
2023-03-22T12:24:26.796Z,5.17
2023-03-22T12:27:35.267Z,4.70
2023-03-22T12:30:44.051Z,7.53
2023-03-22T12:33:50.261Z,6.43
2023-03-22T12:36:57.107Z,6.03
2023-03-22T12:40:05.728Z,6.03
2023-03-22T12:43:17.011Z,6.18
2023-03-22T12:46:23.740Z,6.65
2023-03-22T12:49:32.520Z,7.15
2023-03-22T12:52:45.771Z,7.60
2023-03-22T12:55:50.626Z,6.13
2023-03-22T12:58:58.348Z,6.45
2023-03-22T13:02:06.081Z,5.80
2023-03-22T13:05:12.235Z,6.95
2023-03-22T13:08:21.873Z,6.50
2023-03-22T13:11:25.561Z,7.53
2023-03-22T13:14:57.823Z,6.88
2023-03-22T13:18:00.567Z,5.20
2023-03-22T13:21:14.945Z,6.93
2023-03-22T13:24:23.695Z,5.47
2023-03-22T13:27:37.839Z,7.40
2023-03-22T13:30:52.711Z,7.18
2023-03-22T13:33:56.594Z,6.65
2023-03-22T13:37:03.686Z,5.90
2023-03-22T13:40:15.202Z,5.70
2023-03-22T13:43:30.333Z,6.37
2023-03-22T13:46:51.517Z,7.07
2023-03-22T13:50:01.346Z,6.40
2023-03-22T13:53:08.072Z,7.00
2023-03-22T13:56:14.378Z,6.13
2023-03-22T13:59:21.838Z,8.47
2023-03-22T14:02:30.148Z,6.72
2023-03-22T14:05:37.410Z,7.63
2023-03-22T14:08:42.900Z,6.32
2023-03-22T14:11:49.981Z,5.53
2023-03-22T14:14:57.995Z,5.93
2023-03-22T14:18:07.364Z,8.18
2023-03-22T14:21:15.344Z,6.38
